Flight Track Log - Related Links

Times and Time Zones

All times are in EDT time to prevent confusion due to time zone crossing. See the DAL3688 flight status page for this flight to view local times or setup timezone preferences in your user account.

Time Position Orientation Groundspeed Altitude Reporting Facility
EDT Latitude Longitude Course Direction KTS MPH feet Rate Location/Type
12:52PM 40.1981 -77.0242 247° West 364 419 8,500  Level New York Center
12:53PM 40.1769 -77.1064 251° West 315 362 10,400 1,377 Climbing New York Center
12:54PM 40.1497 -77.2236 253° West 296 341 11,300 1,289 Climbing New York Center
12:55PM 40.1758 -77.3716 241° Southwest  Level FlightAware Approximate
12:55PM 40.1253 -77.3272 253° West 322 371 13,000  Level New York Center
12:56PM 40.1353 -77.4775 247° West  Level FlightAware Approximate
12:56PM 40.0931 -77.4544 252° West 334 384 14,700  Level New York Center
12:57PM 40.0992 -77.5860 247° West  Level FlightAware Approximate
12:57PM 40.0683 -77.5606 253° West 339 390 16,200  Level New York Center
12:58PM 40.0389 -77.6922 254° West 357 411 17,900 1,333 Climbing Cleveland Center
12:59PM 40.0064 -77.8156 251° West 367 422 19,000 950 Climbing Cleveland Center
01:00PM 39.9761 -77.9417 253° West 367 422 19,800 750 Climbing Cleveland Center
01:01PM 39.9728 -78.0772 268° West 362 417 20,500 700 Climbing Cleveland Center
01:02PM 39.9758 -78.2153 272° West 378 435 21,200 700 Climbing Cleveland Center
01:03PM 39.9808 -78.3561 273° West 385 443 21,900 700 Climbing Cleveland Center
01:04PM 39.9833 -78.4967 271° West 385 443 22,600 700 Climbing Cleveland Center
01:05PM 39.9881 -78.6403 273° West 385 443 23,300 700 Climbing Cleveland Center
01:06PM 39.9903 -78.7811 271° West 390 449 24,000 700 Climbing Cleveland Center
01:07PM 39.9947 -78.9219 272° West 390 449 24,700 750 Climbing Cleveland Center
01:08PM 40.0072 -79.0761 276° West 390 449 25,500 650 Climbing Cleveland Center
01:09PM 40.0481 -79.1783 298° West 390 449 26,000 250 Climbing Cleveland Center
01:10PM 40.1103 -79.3289 298° West 390 449 26,000  Level Cleveland Center
01:11PM 40.1617 -79.4583 297° West 395 455 26,000  Level Cleveland Center
01:12PM 40.2150 -79.5881 298° West 400 460 26,000  Level Cleveland Center
01:13PM 40.2681 -79.7178 298° West 405 466 26,000  Level Cleveland Center
01:14PM 40.3150 -79.8344 298° West 393 452 26,000  Level Cleveland Center
01:15PM 40.3594 -79.9456 298° West 377 434 26,000  Level Cleveland Center
01:16PM 40.3975 -80.0514 295° West 360 414 26,000  Level Cleveland Center
01:17PM 40.4458 -80.1683 299° West 360 414 26,000  Level Cleveland Center
01:18PM 40.4919 -80.2883 297° West 366 421 26,000  Level Cleveland Center
01:19PM 40.5422 -80.4056 299° West 361 415 26,000  Level Cleveland Center
01:20PM 40.5883 -80.5231 297° West 366 421 26,000  Level Cleveland Center
01:21PM 40.6425 -80.6597 298° West 366 421 26,000  Level Cleveland Center
01:22PM 40.6861 -80.7639 299° West 366 421 26,000  Level Cleveland Center
01:23PM 40.7422 -80.8792 303° West 371 427 26,000  Level Cleveland Center
01:24PM 40.8003 -80.9944 304° West 377 434 26,000  Level Cleveland Center
01:25PM 40.8561 -81.1131 302° West 382 440 26,000  Level Cleveland Center
01:26PM 40.9117 -81.2314 302° West 382 440 26,000  Level Cleveland Center
01:27PM 40.9694 -81.3475 303° West 382 440 26,000  Level Cleveland Center
01:28PM 41.0269 -81.4667 303° West 382 440 26,000 -450 Level Cleveland Center
01:29PM 41.0822 -81.5831 302° West 382 440 25,100 -950 Descending Cleveland Center
01:30PM 41.1394 -81.6997 303° West 382 440 24,100 -550 Descending Cleveland Center
01:31PM 41.1967 -81.8139 304° West 382 440 24,000 -50 Descending Cleveland Center
01:32PM 41.2517 -81.9336 301° West 382 440 24,000  Level Cleveland Center
01:33PM 41.3086 -82.0481 304° West 382 440 24,000  Level Cleveland Center
01:34PM 41.3692 -82.1825 301° West 382 440 24,000 -50 Level Cleveland Center
01:35PM 41.4261 -82.2808 308° West 382 440 23,900 -1,300 Descending Cleveland Center
01:36PM 41.4914 -82.3850 310° West 372 428 21,400 -2,150 Descending Cleveland Center
01:37PM 41.5503 -82.4839 309° West 357 411 19,600 -2,100 Descending Cleveland Center
01:38PM 41.6028 -82.5742 308° West 328 377 17,200 -2,628 Descending Cleveland Center
01:39PM 41.6656 -82.6761 310° West 305 351 14,300 -2,500 Descending Cleveland Center
01:40PM 41.7119 -82.7583 307° West 307 353 12,200 -1,078 Descending Cleveland Center
01:41PM 41.7811 -82.8497 315° West 317 365 12,000 -100 Descending Cleveland Center
01:42PM 41.8383 -82.9158 319° Northwest 307 353 12,000  Level Cleveland Center
01:43PM 41.9033 -82.9936 318° Northwest 312 359 12,000  Level Cleveland Center
01:44PM 41.9664 -83.0658 320° Northwest 308 354 12,000  Level Cleveland Center
01:45PM 42.0211 -83.1350 317° Northwest 236 272 12,000  Level Cleveland Center
01:45PM 42.0211 -83.1350 317° Northwest 295 339 12,000 -700 Level Cleveland Center
01:46PM 42.0700 -83.1958 317° Northwest 262 302 11,300 -582 Descending Cleveland Center
01:47PM 42.1589 -83.2189 349° North 274 315 10,700 -667 Descending Cleveland Center
01:49PM 42.2328 -83.1828 20° North 293 337 9,800 -1,033 Descending Cleveland Center
01:50PM 42.3047 -83.1353 26° Northeast 278 320 8,600 -1,190 Descending Cleveland Center
01:50PM 42.3661 -83.0928 27° Northeast 276 318 7,500 -1,279 Descending Cleveland Center
01:52PM 42.4397 -83.0619 17° North 259 298 6,000 -776 Descending Cleveland Center
01:52PM 42.4783 -83.1028 322° Northwest 193 222 6,000  Level Cleveland Center
01:53PM 42.4647 -83.1586 252° West 150 173 6,000 -279 Level Cleveland Center
01:55PM 42.4244 -83.1822 203° Southwest 154 177 5,400 -744 Descending Cleveland Center
01:56PM 42.3842 -83.2172 213° Southwest 154 177 4,400 -896 Descending Cleveland Center

Login

Don't have an account? Register now (free) for customized features, flight alerts, and more!